Time,TemperatureF,DewpointF,PressureIn,WindDirection,WindDirectionDegrees,WindSpeedMPH,WindSpeedGustMPH,Humidity,HourlyPrecipIn,Conditions,Clouds,dailyrainin,SolarRadiationWatts/m^2,SoftwareType,DateUTC
2013-04-17 00:08:00,60.3,29.0,30.18,NNW,327,5.0,-999.0,30,-99.99,,,0.00,0,weatherlink.com 1.10,2013-04-17 07:08:00,
2013-04-17 00:23:00,60.0,28.0,30.19,NNW,331,13.0,-999.0,30,-99.99,,,0.00,0,weatherlink.com 1.10,2013-04-17 07:23:00,
2013-04-17 00:38:00,59.8,29.0,30.20,NNW,340,8.0,-999.0,31,-99.99,,,0.00,0,weatherlink.com 1.10,2013-04-17 07:38:00,
2013-04-17 00:53:00,59.0,29.0,30.20,NNW,333,11.0,-999.0,32,-99.99,,,0.00,0,weatherlink.com 1.10,2013-04-17 07:53:00,
2013-04-17 01:08:00,59.0,30.0,30.21,NNW,341,0.0,-999.0,33,-99.99,,,0.00,0,weatherlink.com 1.10,2013-04-17 08:08:00,
2013-04-17 01:23:00,59.0,30.0,30.21,NNW,345,10.0,-999.0,33,-99.99,,,0.00,0,weatherlink.com 1.10,2013-04-17 08:23:00,
2013-04-17 01:38:00,58.9,30.0,30.21,NNW,333,9.0,-999.0,33,-99.99,,,0.00,0,weatherlink.com 1.10,2013-04-17 08:38:00,
2013-04-17 01:53:00,59.0,29.0,30.21,NNW,336,7.0,-999.0,32,-99.99,,,0.00,0,weatherlink.com 1.10,2013-04-17 08:53:00,
2013-04-17 02:08:00,58.8,30.0,30.21,NNW,346,10.0,-999.0,33,-99.99,,,0.00,0,weatherlink.com 1.10,2013-04-17 09:08:00,
2013-04-17 02:23:00,58.6,29.0,30.21,WNW,302,8.0,-999.0,33,-99.99,,,0.00,0,weatherlink.com 1.10,2013-04-17 09:23:00,
2013-04-17 02:38:00,58.0,30.0,30.21,NW,315,5.0,-999.0,35,-99.99,,,0.00,0,weatherlink.com 1.10,2013-04-17 09:38:00,
2013-04-17 02:53:00,57.4,30.0,30.21,NW,310,2.0,-999.0,36,-99.99,,,0.00,0,weatherlink.com 1.10,2013-04-17 09:53:00,
2013-04-17 03:08:00,57.0,31.0,30.22,WNW,292,4.0,-999.0,37,-99.99,,,0.00,0,weatherlink.com 1.10,2013-04-17 10:08:00,
2013-04-17 03:23:00,56.7,30.0,30.22,NNW,336,2.0,-999.0,37,-99.99,,,0.00,0,weatherlink.com 1.10,2013-04-17 10:23:00,
2013-04-17 03:38:00,56.4,31.0,30.22,NNW,330,2.0,-999.0,38,-99.99,,,0.00,0,weatherlink.com 1.10,2013-04-17 10:38:00,
2013-04-17 03:53:00,56.0,31.0,30.23,NNW,327,6.0,-999.0,38,-99.99,,,0.00,0,weatherlink.com 1.10,2013-04-17 10:53:00,
2013-04-17 04:24:00,56.0,31.0,30.23,NNW,341,5.0,-999.0,38,-99.99,,,0.00,0,weatherlink.com 1.10,2013-04-17 11:24:00,
2013-04-17 04:39:00,56.3,31.0,30.23,NNW,346,4.0,-999.0,38,-99.99,,,0.00,0,weatherlink.com 1.10,2013-04-17 11:39:00,
2013-04-17 04:54:00,56.3,31.0,30.24,NNW,331,2.0,-999.0,39,-99.99,,,0.00,0,weatherlink.com 1.10,2013-04-17 11:54:00,
2013-04-17 05:09:00,55.9,31.0,30.24,NNW,330,10.0,-999.0,39,-99.99,,,0.00,0,weatherlink.com 1.10,2013-04-17 12:09:00,
2013-04-17 05:24:00,55.8,31.0,30.25,NW,304,8.0,-999.0,39,-99.99,,,0.00,0,weatherlink.com 1.10,2013-04-17 12:24:00,
2013-04-17 05:39:00,55.2,31.0,30.26,WNW,296,4.0,-999.0,40,-99.99,,,0.00,0,weatherlink.com 1.10,2013-04-17 12:39:00,
2013-04-17 05:54:00,54.7,31.0,30.26,WNW,296,0.0,-999.0,41,-99.99,,,0.00,0,weatherlink.com 1.10,2013-04-17 12:54:00,
2013-04-17 06:09:00,55.0,31.0,30.27,NW,321,0.0,-999.0,40,-99.99,,,0.00,0,weatherlink.com 1.10,2013-04-17 13:09:00,
2013-04-17 06:24:00,54.8,31.0,30.28,NW,311,5.0,-999.0,40,-99.99,,,0.00,12,weatherlink.com 1.10,2013-04-17 13:24:00,
2013-04-17 06:39:00,54.4,31.0,30.29,NNW,330,4.0,-999.0,41,-99.99,,,0.00,39,weatherlink.com 1.10,2013-04-17 13:39:00,
2013-04-17 06:54:00,55.1,30.0,30.29,NNW,336,2.0,-999.0,39,-99.99,,,0.00,79,weatherlink.com 1.10,2013-04-17 13:54:00,
2013-04-17 07:09:00,56.2,31.0,30.30,NNW,333,0.0,-999.0,38,-99.99,,,0.00,132,weatherlink.com 1.10,2013-04-17 14:09:00,
2013-04-17 07:24:00,57.1,31.0,30.31,NW,317,1.0,-999.0,37,-99.99,,,0.00,192,weatherlink.com 1.10,2013-04-17 14:24:00,
2013-04-17 07:39:00,58.3,31.0,30.31,WNW,299,5.0,-999.0,35,-99.99,,,0.00,243,weatherlink.com 1.10,2013-04-17 14:39:00,
2013-04-17 07:54:00,59.0,30.0,30.32,NW,324,0.0,-999.0,34,-99.99,,,0.00,295,weatherlink.com 1.10,2013-04-17 14:54:00,
2013-04-17 08:09:00,60.1,31.0,30.33,NW,318,4.0,-999.0,33,-99.99,,,0.00,346,weatherlink.com 1.10,2013-04-17 15:09:00,
2013-04-17 08:24:00,61.5,30.0,30.34,WNW,286,6.0,-999.0,31,-99.99,,,0.00,397,weatherlink.com 1.10,2013-04-17 15:24:00,
2013-04-17 08:39:00,63.2,29.0,30.34,NW,323,1.0,-999.0,28,-99.99,,,0.00,448,weatherlink.com 1.10,2013-04-17 15:39:00,
2013-04-17 08:55:00,64.2,28.0,30.35,NNW,332,4.0,-999.0,26,-99.99,,,0.00,497,weatherlink.com 1.10,2013-04-17 15:55:00,
2013-04-17 09:10:00,65.0,27.0,30.35,NNW,336,8.0,-999.0,24,-99.99,,,0.00,545,weatherlink.com 1.10,2013-04-17 16:10:00,
2013-04-17 09:25:00,65.6,27.0,30.36,NNW,338,4.0,-999.0,23,-99.99,,,0.00,591,weatherlink.com 1.10,2013-04-17 16:25:00,
2013-04-17 09:40:00,66.3,26.0,30.35,WNW,302,1.0,-999.0,22,-99.99,,,0.00,633,weatherlink.com 1.10,2013-04-17 16:40:00,
2013-04-17 09:55:00,67.1,23.0,30.35,NW,325,1.0,-999.0,19,-99.99,,,0.00,673,weatherlink.com 1.10,2013-04-17 16:55:00,
2013-04-17 10:10:00,67.5,25.0,30.36,NNW,330,1.0,-999.0,20,-99.99,,,0.00,715,weatherlink.com 1.10,2013-04-17 17:10:00,
2013-04-17 10:25:00,67.5,24.0,30.36,North,11,5.0,-999.0,19,-99.99,,,0.00,745,weatherlink.com 1.10,2013-04-17 17:25:00,
2013-04-17 10:40:00,68.3,24.0,30.36,NE,40,6.0,-999.0,19,-99.99,,,0.00,780,weatherlink.com 1.10,2013-04-17 17:40:00,
2013-04-17 10:55:00,69.2,24.0,30.35,North,350,7.0,-999.0,18,-99.99,,,0.00,805,weatherlink.com 1.10,2013-04-17 17:55:00,
2013-04-17 11:10:00,69.6,24.0,30.35,NNE,14,7.0,-999.0,18,-99.99,,,0.00,831,weatherlink.com 1.10,2013-04-17 18:10:00,
2013-04-17 11:25:00,69.9,26.0,30.34,North,9,5.0,-999.0,19,-99.99,,,0.00,851,weatherlink.com 1.10,2013-04-17 18:25:00,
2013-04-17 11:40:00,70.3,23.0,30.34,NE,42,1.0,-999.0,17,-99.99,,,0.00,868,weatherlink.com 1.10,2013-04-17 18:40:00,
2013-04-17 11:55:00,71.6,26.0,30.33,NNE,20,1.0,-999.0,18,-99.99,,,0.00,884,weatherlink.com 1.10,2013-04-17 18:55:00,
2013-04-17 12:10:00,71.8,26.0,30.33,North,10,2.0,-999.0,18,-99.99,,,0.00,896,weatherlink.com 1.10,2013-04-17 19:10:00,
2013-04-17 12:25:00,71.8,23.0,30.32,NE,34,2.0,-999.0,16,-99.99,,,0.00,898,weatherlink.com 1.10,2013-04-17 19:25:00,
2013-04-17 12:40:00,72.5,24.0,30.32,NW,304,0.0,-999.0,16,-99.99,,,0.00,904,weatherlink.com 1.10,2013-04-17 19:40:00,
2013-04-17 12:55:00,73.2,24.0,30.32,NNW,344,6.0,-999.0,16,-99.99,,,0.00,907,weatherlink.com 1.10,2013-04-17 19:55:00,
2013-04-17 13:11:00,73.3,21.0,30.31,NNW,333,13.0,-999.0,14,-99.99,,,0.00,896,weatherlink.com 1.10,2013-04-17 20:11:00,
2013-04-17 13:26:00,72.9,21.0,30.31,NNE,32,6.0,-999.0,14,-99.99,,,0.00,877,weatherlink.com 1.10,2013-04-17 20:26:00,
2013-04-17 13:56:00,74.1,25.0,30.31,North,360,1.0,-999.0,16,-99.99,,,0.00,853,weatherlink.com 1.10,2013-04-17 20:56:00,
2013-04-17 14:11:00,75.2,24.0,30.30,North,5,3.0,-999.0,15,-99.99,,,0.00,828,weatherlink.com 1.10,2013-04-17 21:11:00,
2013-04-17 14:26:00,75.1,21.0,30.30,ENE,57,5.0,-999.0,13,-99.99,,,0.00,805,weatherlink.com 1.10,2013-04-17 21:26:00,
2013-04-17 14:41:00,75.4,21.0,30.29,NNW,342,8.0,-999.0,13,-99.99,,,0.00,779,weatherlink.com 1.10,2013-04-17 21:41:00,
2013-04-17 14:56:00,75.7,23.0,30.28,NE,38,5.0,-999.0,14,-99.99,,,0.00,745,weatherlink.com 1.10,2013-04-17 21:56:00,
2013-04-17 15:11:00,76.4,24.0,30.29,NNW,331,5.0,-999.0,14,-99.99,,,0.00,712,weatherlink.com 1.10,2013-04-17 22:11:00,
2013-04-17 15:26:00,75.5,21.0,30.28,NE,36,0.0,-999.0,13,-99.99,,,0.00,677,weatherlink.com 1.10,2013-04-17 22:26:00,
2013-04-17 15:56:00,76.7,22.0,30.27,NNE,20,9.0,-999.0,13,-99.99,,,0.00,589,weatherlink.com 1.10,2013-04-17 22:56:00,
2013-04-17 16:11:00,76.3,20.0,30.27,NNE,26,7.0,-999.0,12,-99.99,,,0.00,548,weatherlink.com 1.10,2013-04-17 23:11:00,
2013-04-17 16:26:00,76.3,18.0,30.27,North,360,10.0,-999.0,11,-99.99,,,0.00,499,weatherlink.com 1.10,2013-04-17 23:26:00,
2013-04-17 16:41:00,76.1,20.0,30.27,East,80,5.0,-999.0,12,-99.99,,,0.00,443,weatherlink.com 1.10,2013-04-17 23:41:00,
2013-04-17 16:56:00,76.0,18.0,30.27,ENE,64,3.0,-999.0,11,-99.99,,,0.00,403,weatherlink.com 1.10,2013-04-17 23:56:00,
2013-04-17 17:11:00,75.5,17.0,30.27,NNW,340,6.0,-999.0,11,-99.99,,,0.00,352,weatherlink.com 1.10,2013-04-18 00:11:00,
2013-04-17 17:26:00,75.4,19.0,30.27,NNE,24,3.0,-999.0,12,-99.99,,,0.00,306,weatherlink.com 1.10,2013-04-18 00:26:00,
2013-04-17 17:41:00,75.2,17.0,30.28,NE,42,5.0,-999.0,11,-99.99,,,0.00,251,weatherlink.com 1.10,2013-04-18 00:41:00,
2013-04-17 17:56:00,74.8,19.0,30.28,North,5,10.0,-999.0,12,-99.99,,,0.00,206,weatherlink.com 1.10,2013-04-18 00:56:00,
2013-04-17 18:11:00,74.0,18.0,30.28,NE,35,7.0,-999.0,12,-99.99,,,0.00,151,weatherlink.com 1.10,2013-04-18 01:11:00,
2013-04-17 18:26:00,73.5,18.0,30.29,NNE,31,11.0,-999.0,12,-99.99,,,0.00,102,weatherlink.com 1.10,2013-04-18 01:26:00,
2013-04-17 18:41:00,73.1,19.0,30.29,NE,55,0.0,-999.0,13,-99.99,,,0.00,54,weatherlink.com 1.10,2013-04-18 01:41:00,
2013-04-17 18:56:00,72.3,17.0,30.29,NNE,30,1.0,-999.0,12,-99.99,,,0.00,16,weatherlink.com 1.10,2013-04-18 01:56:00,
2013-04-17 19:11:00,71.4,18.0,30.30,NE,44,3.0,-999.0,13,-99.99,,,0.00,7,weatherlink.com 1.10,2013-04-18 02:11:00,
2013-04-17 19:41:00,70.2,17.0,30.30,NNE,19,0.0,-999.0,13,-99.99,,,0.00,0,weatherlink.com 1.10,2013-04-18 02:41:00,
2013-04-17 19:56:00,69.6,17.0,30.31,NNE,23,0.0,-999.0,13,-99.99,,,0.00,0,weatherlink.com 1.10,2013-04-18 02:56:00,
2013-04-17 20:11:00,69.4,16.0,30.32,NNW,344,0.0,-999.0,13,-99.99,,,0.00,0,weatherlink.com 1.10,2013-04-18 03:11:00,
2013-04-17 20:26:00,69.4,18.0,30.33,North,5,0.0,-999.0,14,-99.99,,,0.00,0,weatherlink.com 1.10,2013-04-18 03:26:00,
2013-04-17 20:41:00,68.8,18.0,30.34,North,5,6.0,-999.0,14,-99.99,,,0.00,0,weatherlink.com 1.10,2013-04-18 03:41:00,
2013-04-17 20:56:00,68.7,17.0,30.34,North,10,1.0,-999.0,14,-99.99,,,0.00,0,weatherlink.com 1.10,2013-04-18 03:56:00,
2013-04-17 21:11:00,67.6,18.0,30.35,North,360,0.0,-999.0,15,-99.99,,,0.00,0,weatherlink.com 1.10,2013-04-18 04:11:00,
2013-04-17 21:26:00,67.0,19.0,30.36,North,360,0.0,-999.0,16,-99.99,,,0.00,0,weatherlink.com 1.10,2013-04-18 04:26:00,
2013-04-17 21:41:00,66.4,26.0,30.37,North,5,0.0,-999.0,22,-99.99,,,0.00,0,weatherlink.com 1.10,2013-04-18 04:41:00,
2013-04-17 21:56:00,64.0,24.0,30.37,North,5,0.0,-999.0,22,-99.99,,,0.00,0,weatherlink.com 1.10,2013-04-18 04:56:00,
2013-04-17 22:11:00,63.9,22.0,30.37,North,5,0.0,-999.0,20,-99.99,,,0.00,0,weatherlink.com 1.10,2013-04-18 05:11:00,
2013-04-17 22:26:00,62.6,29.0,30.37,North,5,0.0,-999.0,28,-99.99,,,0.00,0,weatherlink.com 1.10,2013-04-18 05:26:00,
2013-04-17 22:41:00,61.1,26.0,30.38,North,5,0.0,-999.0,26,-99.99,,,0.00,0,weatherlink.com 1.10,2013-04-18 05:41:00,
2013-04-17 22:56:00,60.5,28.0,30.37,North,5,0.0,-999.0,29,-99.99,,,0.00,0,weatherlink.com 1.10,2013-04-18 05:56:00,
2013-04-17 23:11:00,59.5,27.0,30.38,North,360,0.0,-999.0,29,-99.99,,,0.00,0,weatherlink.com 1.10,2013-04-18 06:11:00,
2013-04-17 23:26:00,58.4,28.0,30.39,North,360,0.0,-999.0,32,-99.99,,,0.00,0,weatherlink.com 1.10,2013-04-18 06:26:00,
2013-04-17 23:41:00,58.0,28.0,30.39,North,360,0.0,-999.0,32,-99.99,,,0.00,0,weatherlink.com 1.10,2013-04-18 06:41:00,
2013-04-17 23:56:00,58.0,26.0,30.39,North,360,0.0,-999.0,29,-99.99,,,0.00,0,weatherlink.com 1.10,2013-04-18 06:56:00,